Flight Track Log - Related Links

Times and Time Zones

All times are in EDT time to prevent confusion due to time zone crossing. See the SWA127 flight status page for this flight to view local times or setup timezone preferences in your user account.

Time Position Orientation Groundspeed Altitude Reporting Facility
EDT Latitude Longitude Course Direction KTS MPH feet Rate Location/Type
Mon 10:57:15 39.3167 -94.7167 349° North 155 178 1,900  Level Kansas TRACON
Mon 10:58:27 39.3833 -94.7333 349° North 209 241 4,700 2,336 Climbing Kansas TRACON
Mon 10:59:08 39.3989 -94.7592 308° West 214 246 6,300 3,030 Climbing Kansas Center
Mon 11:00:08 39.3583 -94.8167 228° Southwest 237 273 9,800 2,736 Climbing Kansas Center
Mon 11:01:13 39.2811 -94.8381 192° South 305 351 12,000 2,832 Climbing Kansas Center
Mon 11:02:13 39.1975 -94.8603 192° South 317 365 15,700 3,561 Climbing Kansas Center
Mon 11:03:16 39.0944 -94.8872 191° South 337 388 19,300 3,048 Climbing Kansas Center
Mon 11:04:17 39.0000 -94.9125 192° South 356 410 22,000 2,710 Climbing Kansas Center
Mon 11:05:20 38.8853 -94.9417 191° South 372 428 24,900 2,832 Climbing Kansas Center
Mon 11:06:22 38.7853 -94.9681 192° South 381 438 27,900 2,832 Climbing Kansas Center
Mon 11:07:25 38.6925 -94.9925 192° South 355 409 30,800 2,049 Climbing Kansas Center
Mon 11:08:25 38.5786 -95.0225 192° South 375 432 32,100 1,403 Climbing Kansas Center
Mon 11:09:29 38.4769 -95.0492 192° South 386 444 33,700 1,500 Climbing Kansas Center
Mon 11:10:29 38.3564 -95.0800 191° South 399 459 35,200 1,415 Climbing Kansas Center
Mon 11:11:32 38.2511 -95.1064 191° South 401 461 36,600 1,366 Climbing Kansas Center
Mon 11:12:32 38.1306 -95.1403 192° South 398 458 38,000 672 Climbing Kansas Center
Mon 11:13:37 38.0283 -95.1769 196° South 396 456 38,000  Level Kansas Center
Mon 11:14:38 37.9097 -95.2172 195° South 389 448 38,000  Level Kansas Center
Mon 11:15:41 37.8042 -95.2539 195° South 390 449 38,000  Level Kansas Center
Mon 11:16:42 37.6989 -95.2886 195° South 391 450 38,000  Level Kansas Center
Mon 11:17:44 37.5922 -95.3258 195° South 394 453 38,000  Level Kansas Center
Mon 11:18:45 37.4861 -95.3603 194° South 394 453 38,000  Level Kansas Center
Mon 11:19:49 37.3792 -95.3969 195° South 396 456 38,000  Level Kansas Center
Mon 11:20:50 37.2522 -95.4394 195° South 394 453 38,000  Level Kansas Center
Mon 11:21:51 37.1467 -95.4750 195° South 392 451 38,000  Level Kansas Center
Mon 11:22:55 37.0394 -95.5106 195° South 395 455 38,000  Level Kansas Center
Mon 11:23:56 36.9325 -95.5464 195° South 397 457 38,000  Level Kansas Center
Mon 11:24:59 36.8267 -95.5811 195° South 396 456 38,000  Level Kansas Center
Mon 11:25:59 36.7197 -95.6164 195° South 396 456 38,000  Level Kansas Center
Mon 11:27:03 36.5936 -95.6575 195° South 396 456 38,000  Level Kansas Center
Mon 11:28:03 36.4875 -95.6908 194° South 395 455 38,000  Level Kansas Center
Mon 11:29:07 36.3831 -95.7275 196° South 393 452 38,000  Level Kansas Center
Mon 11:30:07 36.2800 -95.7611 195° South 391 450 38,000  Level Kansas Center
Mon 11:31:11 36.1753 -95.7950 195° South 391 450 38,000  Level Kansas Center
Mon 11:32:12 36.0489 -95.8397 196° South 395 455 38,000  Level Kansas Center
Mon 11:33:16 35.9422 -95.8778 196° South 397 457 38,000  Level Kansas Center
Mon 11:34:16 35.8356 -95.9131 195° South 397 457 38,000  Level Kansas Center
Mon 11:35:18 35.7283 -95.9506 196° South 398 458 38,000  Level Kansas Center
Mon 11:36:22 35.6214 -95.9864 195° South 397 457 38,000  Level Kansas Center
Mon 11:37:03 35.5300 -96.0208 197° South 399 459 38,000  Level Fort Center
Mon 11:38:03 35.4219 -96.0583 196° South 399 459 38,000  Level Fort Center
Mon 11:39:03 35.3139 -96.0931 195° South 399 459 38,000  Level Fort Center
Mon 11:40:03 35.2058 -96.1306 196° South 399 459 38,000  Level Fort Center
Mon 11:41:03 35.0997 -96.1700 197° South 399 459 38,000  Level Fort Center
Mon 11:42:03 34.9917 -96.2047 195° South 399 459 38,000  Level Fort Center
Mon 11:43:03 34.8836 -96.2417 196° South 399 459 38,000  Level Fort Center
Mon 11:44:03 34.7753 -96.2783 196° South 399 459 38,000  Level Fort Center
Mon 11:45:03 34.6653 -96.3178 196° South 399 459 38,000  Level Fort Center
Mon 11:46:03 34.5569 -96.3544 196° South 404 465 38,000  Level Fort Center
Mon 11:47:03 34.4447 -96.3911 195° South 409 471 38,000  Level Fort Center
Mon 11:48:03 34.3386 -96.4275 196° South 409 471 38,000  Level Fort Center
Mon 11:49:03 34.2303 -96.4639 196° South 409 471 38,000  Level Fort Center
Mon 11:50:03 34.1200 -96.5028 196° South 409 471 38,000  Level Fort Center
Mon 11:51:03 34.0181 -96.5339 194° South 392 451 38,000  Level Fort Center
Mon 11:52:03 33.9117 -96.5700 196° South 397 457 38,000  Level Fort Center
Mon 11:53:03 33.8036 -96.6086 197° South 397 457 38,000  Level Fort Center
Mon 11:54:03 33.6953 -96.6419 194° South 397 457 38,000  Level Fort Center
Mon 11:55:03 33.5869 -96.6778 195° South 397 457 38,000  Level Fort Center
Mon 11:56:03 33.4911 -96.7061 194° South 397 457 38,000  Level Fort Center
Mon 11:57:03 33.3847 -96.7417 196° South 390 449 38,000  Level Fort Center
Mon 11:58:03 33.2786 -96.7772 196° South 397 457 38,000  Level Fort Center
Mon 11:59:03 33.1742 -96.8103 195° South 397 457 38,000  Level Fort Center
Mon 12:00:03 33.0681 -96.8458 196° South 397 457 38,000  Level Fort Center
Mon 12:01:03 32.9492 -96.8861 196° South 397 457 38,000  Level Fort Center
Mon 12:02:03 32.8386 -96.9017 187° South 397 457 38,000  Level Fort Center
Mon 12:03:03 32.7239 -96.8947 177° South 403 464 38,000  Level Fort Center
Mon 12:04:03 32.6069 -96.8881 177° South 420 483 38,000  Level Fort Center
Mon 12:05:03 32.4878 -96.8814 177° South 420 483 38,000  Level Fort Center
Mon 12:06:03 32.3731 -96.8772 178° South 420 483 38,000  Level Fort Center
Mon 12:07:03 32.2706 -96.8703 177° South 420 483 38,000  Level Fort Center
Mon 12:08:03 32.1536 -96.8614 176° South 420 483 38,000  Level Fort Center
Mon 12:09:03 32.0347 -96.8569 178° South 420 483 38,000  Level Fort Center
Mon 12:10:03 31.9239 -96.8528 178° South 414 476 38,000  Level Fort Center
Mon 12:11:03 31.8069 -96.8461 177° South 409 471 38,000  Level Fort Center
Mon 12:12:03 31.6775 -96.8347 176° South 415 478 38,000  Level Fort Center
Mon 12:13:09 31.5681 -96.8161 172° South 422 486 38,000  Level Houston Center
Mon 12:14:11 31.4289 -96.7931 172° South 427 491 38,000 -1,065 Level Houston Center
Mon 12:15:13 31.3119 -96.7736 172° South 421 484 35,800 -2,352 Descending Houston Center
Mon 12:16:16 31.1928 -96.7542 172° South 424 488 33,100 -2,448 Descending Houston Center
Mon 12:17:18 31.0764 -96.7367 173° South 419 482 30,700 -2,226 Descending Houston Center
Mon 12:18:20 30.9611 -96.7178 172° South 413 475 28,500 -1,839 Descending Houston Center
Mon 12:19:22 30.8467 -96.7003 173° South 410 472 26,900 -1,839 Descending Houston Center
Mon 12:20:24 30.7392 -96.6533 159° South 416 479 24,700 -2,129 Descending Houston Center
Mon 12:21:26 30.6456 -96.5728 143° Southeast 417 480 22,500 -2,371 Descending Houston Center
Mon 12:22:28 30.5403 -96.4839 144° Southeast 398 458 19,800 -2,442 Descending Houston Center
Mon 12:23:19 30.4697 -96.4278 146° Southeast 387 445 17,900 -2,196 Descending Houston Center
Mon 12:24:20 30.3817 -96.3528 144° Southeast 377 434 15,700 -2,328 Descending Houston Center
Mon 12:25:15 30.3072 -96.2911 144° Southeast 361 415 13,400 -2,240 Descending Houston Center
Mon 12:25:35 30.2844 -96.2719 144° Southeast 362 417 12,900 -2,066 Descending Houston Center
Mon 12:26:16 30.2261 -96.2228 144° Southeast 344 396 11,300 -1,839 Descending Houston Center
Mon 12:26:37 30.2064 -96.2067 145° Southeast 347 399 11,000 -327 Descending Houston Center
Mon 12:27:11 30.1564 -96.1703 148° Southeast 335 386 11,000 -97 Level Houston Center
Mon 12:27:39 30.1178 -96.1358 142° Southeast 347 399 10,900  Descending Houston Center
Mon 12:28:12 30.0728 -96.0975 144° Southeast 358 412 11,000  Climbing Houston Center
Mon 12:28:41 30.0378 -96.0669 143° Southeast 356 410 10,900 -689 Descending Houston Center
Mon 12:29:13 29.9911 -96.0272 144° Southeast 358 412 10,300 -871 Descending Houston Center
Mon 12:29:43 29.9656 -96.0064 145° Southeast 359 413 10,000 -358 Descending Houston Center
Mon 12:30:20 29.9119 -95.9617 144° Southeast 306 352 9,900  Descending Houston Center
Mon 12:30:45 29.8814 -95.9342 142° Southeast 310 357 10,000 98 Climbing Houston Center
Mon 12:31:21 29.8439 -95.9019 143° Southeast 301 346 10,000 -290 Level Houston Center
Mon 12:31:47 29.8139 -95.8797 147° Southeast 299 344 9,700 -873 Descending Houston Center
Mon 12:32:16 29.7806 -95.8517 144° Southeast 302 348 9,200 -968 Descending Houston Center
Mon 12:32:49 29.7461 -95.8222 143° Southeast 302 348 8,700 -1,355 Descending Houston Center
Mon 12:33:18 29.7081 -95.7903 144° Southeast 299 344 7,800 -1,355 Descending Houston Center
Mon 12:33:51 29.6806 -95.7697 147° Southeast 292 336 7,300 -1,279 Descending Houston Center
Mon 12:34:19 29.6444 -95.7375 142° Southeast 282 325 6,500 -1,238 Descending Houston Center
Mon 12:34:54 29.6181 -95.7167 146° Southeast 283 326 6,000 -492 Descending Houston Center
Mon 12:35:20 29.5911 -95.6811 131° Southeast 266 306 6,000  Level Houston Center
Mon 12:35:56 29.6014 -95.6478 70° East 278 320 6,000 -197 Level Houston Center
Mon 12:36:21 29.6289 -95.6094 50° Northeast 275 316 5,800 -1,548 Descending Houston Center
Mon 12:36:58 29.6369 -95.5564 80° East 277 319 4,400 -2,182 Descending Houston Center
Mon 12:37:16 29.6408 -95.5311 80° East 273 314 3,800 -1,839 Descending Houston Center
Mon 12:38:00 29.6561 -95.4739 73° East 270 311 2,500 -1,881 Descending Houston Center
Mon 12:38:23 29.6658 -95.4369 73° East 264 304 1,700 -871 Descending Houston Center
Mon 12:39:02 29.6764 -95.3947 74° East 265 305 1,600 -238 Descending Houston Center
Mon 12:40:04 29.6889 -95.3372 76° East 213 245 1,300 -533 Descending Houston Center
Mon 12:40:32 29.6756 -95.3156 125° Southeast 132 152 800 -774 Descending Houston Center
Mon 12:41:06 29.6661 -95.3044 134° Southeast 158 182 500 -529 Descending Houston Center

Login

Don't have an account? Register now (free) for customized features, flight alerts, and more!